»·PEaware :: UAL257 KSFO-KLAX

UAL257 :: KSFO-KLAX

FLIGHT INFORMATION

Flight Status: Arrived
Operator:
United Airlines
More flights by this operator :: More flights under this callsign
Pilot: Jamyson D. (13674)
Aircraft: BOEING 737-900
(B739)
More flights by this aircraft type
Origin: KSFO San Francisco Intl
United States
Destination: KLAX Los Angeles Intl
United States
More flights between these airports :: More routes between these airports
Route: WESLA4 EBAYE BURGL IRNMN2
File this flight plan on PilotEdge
Remarks:
Altitude:
(Current/Filed)
33,000ft
Speed:
(Current/Filed)
446kts
Departed: 11-Oct-18 08:34 PM
Arrived: 11-Oct-18 09:38 PM
Distance/Time
Traveled:
293nm/1:04
Distance/Time
To Go:
Arrived

Flight Plot

Page will automatically refresh every two minutes.

Flight plan parsing failed; only flown route is shown


Map Options




Map Legend


Flown Route
Filed Route
Departure Airport
Arrival Airport
Navaid (VOR, NDB)
Fix

Horizontal Profiles

Position Reports

Time Latitude Longitude Heading Altitude Ground
Speed
11-Oct-18 20:17 37.619455 -122.384853 119 20ft 0kts
11-Oct-18 20:18 37.619455 -122.384853 119 20ft 0kts
11-Oct-18 20:19 37.619455 -122.384853 119 20ft 0kts
11-Oct-18 20:20 37.619455 -122.384853 119 20ft 0kts
11-Oct-18 20:21 37.619455 -122.384853 119 20ft 0kts
11-Oct-18 20:22 37.619455 -122.384853 119 20ft 0kts
11-Oct-18 20:23 37.619455 -122.384853 119 20ft 0kts
11-Oct-18 20:24 37.619455 -122.384853 119 20ft 0kts
11-Oct-18 20:25 37.619455 -122.384853 119 20ft 0kts
11-Oct-18 20:26 37.619476 -122.384899 119 20ft 2kts
11-Oct-18 20:27 37.619698 -122.385486 87 20ft 2kts
11-Oct-18 20:28 37.619942 -122.385388 27 20ft 0kts
11-Oct-18 20:29 37.619947 -122.385384 27 20ft 0kts
11-Oct-18 20:30 37.620549 -122.384933 47 20ft 6kts
11-Oct-18 20:31 37.618662 -122.379637 117 20ft 17kts
11-Oct-18 20:32 37.616934 -122.374511 118 20ft 15kts
11-Oct-18 20:33 37.614682 -122.369282 128 20ft 18kts
11-Oct-18 20:34 37.611771 -122.363313 118 20ft 21kts
11-Oct-18 20:35 37.610989 -122.359030 29 20ft 0kts
11-Oct-18 20:36 37.612581 -122.360443 296 20ft 43kts
11-Oct-18 20:37 37.629655 -122.397195 298 991ft 156kts
11-Oct-18 20:38 37.651060 -122.445742 296 3034ft 169kts
11-Oct-18 20:39 37.665098 -122.511940 242 4194ft 256kts
11-Oct-18 20:40 37.596443 -122.519817 161 7080ft 291kts
11-Oct-18 20:41 37.519730 -122.487334 158 10140ft 296kts
11-Oct-18 20:42 37.453897 -122.426880 130 12492ft 312kts
11-Oct-18 20:43 37.402956 -122.356650 130 14093ft 333kts
11-Oct-18 20:44 37.338320 -122.268756 130 15537ft 363kts
11-Oct-18 20:45 37.268928 -122.174814 130 17759ft 376kts
11-Oct-18 20:46 37.197093 -122.077843 129 19833ft 388kts
11-Oct-18 20:47 37.127688 -121.984419 129 21620ft 399kts
11-Oct-18 20:48 37.051256 -121.881777 130 23047ft 418kts
11-Oct-18 20:49 36.970099 -121.773168 131 24464ft 436kts
11-Oct-18 20:50 36.887729 -121.663428 132 25929ft 447kts
11-Oct-18 20:51 36.802621 -121.550412 132 27291ft 457kts
11-Oct-18 20:52 36.720198 -121.441324 132 28511ft 466kts
11-Oct-18 20:53 36.634690 -121.328533 133 29718ft 474kts
11-Oct-18 20:54 36.545434 -121.211168 133 31259ft 472kts
11-Oct-18 20:55 36.456071 -121.094007 135 32782ft 468kts
11-Oct-18 20:56 36.370303 -120.974234 133 32935ft 465kts
11-Oct-18 20:57 36.286363 -120.853619 133 32919ft 464kts
11-Oct-18 20:58 36.202151 -120.733184 133 32920ft 464kts
11-Oct-18 20:59 36.118635 -120.614203 133 32918ft 464kts
11-Oct-18 21:00 36.035317 -120.495920 133 32915ft 464kts
11-Oct-18 21:01 35.952257 -120.378433 133 32919ft 464kts
11-Oct-18 21:02 35.878467 -120.275710 139 32912ft 462kts
11-Oct-18 21:03 35.790860 -120.200841 152 32917ft 456kts
11-Oct-18 21:04 35.703589 -120.135826 151 32916ft 456kts
11-Oct-18 21:05 35.599701 -120.057610 151 32918ft 457kts
11-Oct-18 21:06 35.494664 -119.978502 151 32910ft 457kts
11-Oct-18 21:07 35.387844 -119.898289 151 32918ft 456kts
11-Oct-18 21:08 35.289415 -119.824477 149 32917ft 457kts
11-Oct-18 21:09 35.192004 -119.733856 145 32933ft 458kts
11-Oct-18 21:10 35.093832 -119.642215 145 32919ft 458kts
11-Oct-18 21:11 34.994235 -119.549580 146 31557ft 464kts
11-Oct-18 21:12 34.897483 -119.459896 148 28889ft 416kts
11-Oct-18 21:13 34.829393 -119.399167 148 28886ft 402kts
11-Oct-18 21:14 34.744843 -119.323812 148 26458ft 405kts
11-Oct-18 21:15 34.665024 -119.253987 147 24265ft 377kts
11-Oct-18 21:16 34.583516 -119.183623 147 23451ft 373kts
11-Oct-18 21:17 34.504478 -119.114349 145 21438ft 365kts
11-Oct-18 21:18 34.427939 -119.046772 145 19023ft 349kts
11-Oct-18 21:19 34.351396 -118.980498 144 15666ft 346kts
11-Oct-18 21:20 34.276801 -118.913406 142 13150ft 331kts
11-Oct-18 21:21 34.207766 -118.850205 142 12124ft 298kts
11-Oct-18 21:22 34.145397 -118.790613 136 11888ft 291kts
11-Oct-18 21:23 34.088840 -118.728104 137 10401ft 283kts
11-Oct-18 21:24 34.035691 -118.665266 118 9135ft 270kts
11-Oct-18 21:25 34.022268 -118.589168 95 8364ft 266kts
11-Oct-18 21:26 34.019636 -118.514583 82 7380ft 268kts
11-Oct-18 21:27 34.027553 -118.443417 81 6081ft 277kts
11-Oct-18 21:28 34.038152 -118.357401 81 3635ft 297kts
11-Oct-18 21:29 34.045714 -118.295577 82 3583ft 250kts
11-Oct-18 21:30 34.047389 -118.223623 92 3602ft 229kts
11-Oct-18 21:31 34.045711 -118.151506 92 3596ft 228kts
11-Oct-18 21:32 34.015709 -118.100194 170 3595ft 225kts
11-Oct-18 21:33 33.966435 -118.115875 255 3607ft 222kts
11-Oct-18 21:34 33.958383 -118.178765 262 3453ft 195kts
11-Oct-18 21:35 33.955856 -118.202954 263 3046ft 179kts
11-Oct-18 21:36 33.950254 -118.257681 263 2152ft 165kts
11-Oct-18 21:37 33.945553 -118.303290 263 1425ft 155kts
11-Oct-18 21:38 33.941068 -118.347253 263 719ft 153kts
11-Oct-18 21:39 33.936300 -118.393812 259 111ft 116kts
11-Oct-18 21:40 33.937103 -118.404096 335 127ft 14kts
11-Oct-18 21:41 33.938493 -118.402717 83 125ft 13kts
11-Oct-18 21:42 33.939622 -118.399600 88 120ft 13kts
11-Oct-18 21:43 33.941488 -118.398328 353 119ft 1kts
11-Oct-18 21:44 33.941634 -118.397750 82 118ft 0kts
11-Oct-18 21:45 33.941633 -118.397752 82 118ft 0kts
11-Oct-18 21:46 33.941633 -118.397752 82 118ft 0kts
11-Oct-18 21:47 33.941633 -118.397752 82 118ft 0kts
11-Oct-18 21:48 33.941633 -118.397752 82 118ft 0kts
11-Oct-18 21:49 33.941633 -118.397752 82 118ft 0kts
11-Oct-18 21:50 33.941633 -118.397752 82 118ft 0kts
11-Oct-18 21:51 33.941633 -118.397752 82 118ft 0kts
11-Oct-18 21:52 33.941633 -118.397752 82 118ft 0kts
11-Oct-18 21:53 33.941633 -118.397752 82 118ft 0kts
11-Oct-18 21:54 33.941633 -118.397752 82 118ft 0kts

Navigation Log

Ident Type
Flight plan parsing failed, navigation log unavailable